Time;durP1;ratioP1;P1;durP2;ratioP2;P2;SDS_P1;SDS_P2;PMS_P1;PMS_P2;Temp;Humidity;BMP_temperature;BMP_pressure;BME280_temperature;BME280_humidity;BME280_pressure;Samples;Min_cycle;Max_cycle;Signal;HPM_P1;HPM_P2
2022/04/12 00:01:31;;;;;;;3.67;3.57;;;;;;;;;;5074693;28;20394;-72
2022/04/12 00:03:57;;;;;;;3.90;3.70;;;;;;;;;;5074357;28;20455;-72
2022/04/12 00:06:24;;;;;;;4.03;3.87;;;;;;;;;;5074414;28;20409;-71
2022/04/12 00:08:50;;;;;;;4.57;4.20;;;;;;;;;;5074361;28;20395;-72
2022/04/12 00:11:16;;;;;;;4.10;3.60;;;;;;;;;;5074229;28;20410;-71
2022/04/12 00:13:42;;;;;;;3.93;3.73;;;;;;;;;;5074040;28;20509;-72
2022/04/12 00:16:08;;;;;;;3.97;3.77;;;;;;;;;;5074094;28;20398;-71
2022/04/12 00:21:18;;;;;;;5.43;3.80;;;;;;;;;;5074024;28;20975;-72
2022/04/12 00:23:45;;;;;;;11.67;4.10;;;;;;;;;;5073897;28;20446;-71
2022/04/12 00:26:11;;;;;;;3.60;3.50;;;;;;;;;;5073977;28;20485;-72
2022/04/12 00:28:37;;;;;;;4.07;3.80;;;;;;;;;;5073883;28;20837;-72
2022/04/12 00:31:03;;;;;;;4.97;4.57;;;;;;;;;;5073826;28;20414;-72
2022/04/12 00:33:29;;;;;;;4.20;4.00;;;;;;;;;;5073856;28;20960;-72
2022/04/12 00:35:58;;;;;;;3.83;3.63;;;;;;;;;;5073799;28;20456;-72
2022/04/12 00:38:26;;;;;;;4.07;3.80;;;;;;;;;;5071993;28;20425;-71
2022/04/12 00:40:53;;;;;;;4.13;3.83;;;;;;;;;;5073859;28;20424;-72
2022/04/12 00:43:20;;;;;;;3.80;3.60;;;;;;;;;;5073589;28;20440;-71
2022/04/12 00:45:47;;;;;;;4.07;3.77;;;;;;;;;;5073743;28;20403;-71
2022/04/12 00:48:14;;;;;;;5.37;3.70;;;;;;;;;;5073725;28;20453;-71
2022/04/12 00:50:41;;;;;;;3.77;3.67;;;;;;;;;;5073649;28;20493;-71
2022/04/12 00:53:08;;;;;;;3.80;3.50;;;;;;;;;;5073366;28;20865;-71
2022/04/12 00:55:34;;;;;;;4.70;4.00;;;;;;;;;;5074093;28;20418;-71
2022/04/12 00:58:05;;;;;;;3.73;3.53;;;;;;;;;;5072107;28;20827;-71
2022/04/12 01:00:31;;;;;;;3.03;3.03;;;;;;;;;;5072159;28;20528;-71
2022/04/12 01:03:01;;;;;;;3.77;3.67;;;;;;;;;;5073691;28;20422;-71
2022/04/12 01:05:27;;;;;;;3.43;3.30;;;;;;;;;;5072131;28;20421;-71
2022/04/12 01:07:53;;;;;;;5.00;3.83;;;;;;;;;;5073394;28;20411;-71
2022/04/12 01:10:19;;;;;;;4.77;4.47;;;;;;;;;;5073639;28;20460;-71
2022/04/12 01:12:47;;;;;;;4.30;4.10;;;;;;;;;;5073174;28;20489;-72
2022/04/12 01:15:23;;;;;;;4.20;3.80;;;;;;;;;;5073651;28;20406;-71
2022/04/12 01:17:49;;;;;;;4.57;4.17;;;;;;;;;;5073110;28;20398;-71
2022/04/12 01:20:17;;;;;;;3.83;3.67;;;;;;;;;;5073468;28;20542;-71
2022/04/12 01:22:52;;;;;;;3.60;3.50;;;;;;;;;;5073254;28;20369;-71
2022/04/12 01:25:22;;;;;;;4.73;4.33;;;;;;;;;;5073228;28;20402;-71
2022/04/12 01:27:48;;;;;;;3.40;3.30;;;;;;;;;;5073098;28;20421;-71
2022/04/12 01:30:14;;;;;;;4.20;4.00;;;;;;;;;;5073229;28;20410;-71
2022/04/12 01:32:39;;;;;;;3.60;3.47;;;;;;;;;;5072996;28;20406;-71
2022/04/12 01:35:06;;;;;;;3.93;3.77;;;;;;;;;;5073059;28;20904;-71
2022/04/12 01:37:32;;;;;;;4.00;3.80;;;;;;;;;;5073056;28;20394;-71
2022/04/12 01:39:58;;;;;;;3.67;3.50;;;;;;;;;;5073004;28;20417;-71
2022/04/12 01:42:24;;;;;;;3.57;3.47;;;;;;;;;;5072913;28;20511;-71
2022/04/12 01:44:50;;;;;;;4.00;3.70;;;;;;;;;;5072956;28;20430;-71
2022/04/12 01:47:17;;;;;;;4.07;3.73;;;;;;;;;;5073230;28;20420;-72
2022/04/12 01:49:43;;;;;;;3.83;3.67;;;;;;;;;;5073213;28;20426;-71
2022/04/12 01:52:10;;;;;;;4.43;4.20;;;;;;;;;;5076914;28;20390;-71
2022/04/12 01:54:36;;;;;;;4.17;3.87;;;;;;;;;;5075561;28;20462;-71
2022/04/12 01:57:02;;;;;;;4.20;3.90;;;;;;;;;;5076880;28;20409;-71
2022/04/12 01:59:28;;;;;;;3.87;3.63;;;;;;;;;;5076803;28;20467;-71
2022/04/12 02:01:54;;;;;;;4.50;4.23;;;;;;;;;;5076659;28;20421;-71
2022/04/12 02:04:20;;;;;;;3.73;3.53;;;;;;;;;;5076674;28;20852;-71
2022/04/12 02:06:46;;;;;;;3.60;3.40;;;;;;;;;;5076725;28;20402;-71
2022/04/12 02:09:12;;;;;;;3.90;3.80;;;;;;;;;;5075329;28;20450;-71
2022/04/12 02:11:38;;;;;;;3.97;3.60;;;;;;;;;;5075254;28;20418;-71
2022/04/12 02:14:04;;;;;;;4.10;3.43;;;;;;;;;;5076364;28;20465;-71
2022/04/12 02:16:30;;;;;;;4.57;3.30;;;;;;;;;;5076563;28;20364;-71
2022/04/12 02:18:56;;;;;;;3.47;3.37;;;;;;;;;;5076738;28;20406;-71
2022/04/12 02:21:22;;;;;;;3.30;3.30;;;;;;;;;;5076340;28;20398;-71
2022/04/12 02:23:48;;;;;;;5.60;3.77;;;;;;;;;;5076307;28;20471;-71
2022/04/12 02:26:13;;;;;;;4.40;4.13;;;;;;;;;;5076233;28;20405;-71
2022/04/12 02:28:39;;;;;;;3.73;3.33;;;;;;;;;;5076211;28;20509;-71
2022/04/12 02:31:05;;;;;;;3.87;3.60;;;;;;;;;;5076250;28;20402;-71
2022/04/12 02:33:31;;;;;;;3.33;3.03;;;;;;;;;;5076150;28;20468;-71
2022/04/12 02:35:57;;;;;;;3.70;3.60;;;;;;;;;;5076132;28;20618;-71
2022/04/12 02:38:23;;;;;;;3.60;3.50;;;;;;;;;;5076135;28;20476;-71
2022/04/12 02:40:49;;;;;;;3.60;3.50;;;;;;;;;;5074766;28;20425;-71
2022/04/12 02:43:15;;;;;;;3.60;3.40;;;;;;;;;;5075747;28;20478;-71
2022/04/12 02:45:41;;;;;;;3.67;3.47;;;;;;;;;;5075959;28;20414;-71
2022/04/12 02:48:09;;;;;;;4.40;4.17;;;;;;;;;;5074651;28;20418;-71
2022/04/12 02:50:35;;;;;;;6.93;3.93;;;;;;;;;;5075883;28;20421;-71
2022/04/12 02:53:01;;;;;;;3.70;3.60;;;;;;;;;;5075777;28;21000;-72
2022/04/12 02:55:27;;;;;;;3.33;3.23;;;;;;;;;;5075784;28;20460;-71
2022/04/12 02:57:53;;;;;;;4.30;4.10;;;;;;;;;;5075767;28;20775;-71
2022/04/12 03:00:19;;;;;;;5.60;3.43;;;;;;;;;;5075787;28;20402;-71
2022/04/12 03:02:45;;;;;;;3.47;3.37;;;;;;;;;;5075292;28;20418;-71
2022/04/12 03:05:12;;;;;;;3.57;3.47;;;;;;;;;;5075711;28;20406;-71
2022/04/12 03:07:38;;;;;;;3.80;3.60;;;;;;;;;;5075599;28;20376;-71
2022/04/12 03:10:04;;;;;;;3.30;3.20;;;;;;;;;;5075513;28;20402;-71
2022/04/12 03:12:30;;;;;;;3.60;3.50;;;;;;;;;;5075350;28;20393;-71
2022/04/12 03:14:56;;;;;;;3.47;3.13;;;;;;;;;;5075358;28;20398;-71
2022/04/12 03:17:22;;;;;;;3.10;3.00;;;;;;;;;;5075371;28;20819;-71
2022/04/12 03:19:48;;;;;;;3.47;3.27;;;;;;;;;;5074108;28;20389;-71
2022/04/12 03:22:14;;;;;;;3.40;3.20;;;;;;;;;;5074656;28;20389;-72
2022/04/12 03:24:40;;;;;;;3.50;3.20;;;;;;;;;;5075604;28;20406;-71
2022/04/12 03:27:06;;;;;;;5.27;3.07;;;;;;;;;;5075321;28;20735;-71
2022/04/12 03:29:32;;;;;;;4.37;3.43;;;;;;;;;;5075374;28;20384;-71
2022/04/12 03:31:59;;;;;;;3.83;3.60;;;;;;;;;;5075304;28;20842;-71
2022/04/12 03:34:25;;;;;;;3.13;3.03;;;;;;;;;;5075021;28;20515;-71
2022/04/12 03:36:51;;;;;;;3.50;3.40;;;;;;;;;;5074968;28;20376;-71
2022/04/12 03:39:18;;;;;;;2.60;2.60;;;;;;;;;;5074968;28;20381;-72
2022/04/12 03:41:47;;;;;;;3.20;3.10;;;;;;;;;;5074842;28;20893;-71
2022/04/12 03:44:13;;;;;;;3.47;2.83;;;;;;;;;;5074816;28;20894;-72
2022/04/12 03:46:39;;;;;;;2.50;2.50;;;;;;;;;;5074847;28;20434;-72
2022/04/12 03:49:06;;;;;;;3.43;3.37;;;;;;;;;;5074757;28;20511;-72
2022/04/12 03:51:31;;;;;;;3.40;3.30;;;;;;;;;;5073689;28;20773;-72
2022/04/12 03:53:57;;;;;;;3.97;3.67;;;;;;;;;;5074545;28;20462;-72
2022/04/12 03:56:24;;;;;;;3.20;3.10;;;;;;;;;;5074524;28;20370;-72
2022/04/12 03:58:50;;;;;;;3.70;3.40;;;;;;;;;;5074539;28;20396;-72
2022/04/12 04:01:16;;;;;;;3.30;3.10;;;;;;;;;;5073281;28;20392;-72
2022/04/12 04:03:42;;;;;;;3.00;2.90;;;;;;;;;;5074486;28;20439;-72
2022/04/12 04:06:08;;;;;;;3.30;3.13;;;;;;;;;;5074381;28;20472;-72
2022/04/12 04:08:34;;;;;;;3.10;3.00;;;;;;;;;;5074376;28;20384;-73
2022/04/12 04:11:00;;;;;;;3.67;3.40;;;;;;;;;;5074381;28;20914;-72
2022/04/12 04:13:29;;;;;;;3.93;3.40;;;;;;;;;;5073658;28;20465;-72
2022/04/12 04:15:55;;;;;;;3.37;3.27;;;;;;;;;;5074272;28;20376;-72
2022/04/12 04:18:22;;;;;;;3.70;3.50;;;;;;;;;;5074170;28;20422;-73
2022/04/12 04:20:48;;;;;;;3.27;3.07;;;;;;;;;;5072969;28;20393;-72
2022/04/12 04:23:14;;;;;;;3.20;3.10;;;;;;;;;;5072746;28;20784;-72
2022/04/12 04:25:40;;;;;;;13.77;3.17;;;;;;;;;;5074075;28;20582;-71
2022/04/12 04:28:10;;;;;;;3.57;3.37;;;;;;;;;;5074012;28;20589;-73
2022/04/12 04:30:37;;;;;;;6.33;3.10;;;;;;;;;;5074124;28;20480;-72
2022/04/12 04:33:03;;;;;;;3.10;3.00;;;;;;;;;;5073800;28;20948;-72
2022/04/12 04:35:29;;;;;;;3.00;2.90;;;;;;;;;;5073825;28;20384;-73
2022/04/12 04:37:55;;;;;;;3.70;3.33;;;;;;;;;;5073606;28;20508;-73
2022/04/12 04:40:22;;;;;;;3.43;3.20;;;;;;;;;;5073869;28;20427;-72
2022/04/12 04:42:51;;;;;;;3.50;3.30;;;;;;;;;;5073585;28;20796;-72
2022/04/12 04:45:17;;;;;;;3.93;3.63;;;;;;;;;;5073732;28;20376;-72
2022/04/12 04:47:53;;;;;;;3.23;3.13;;;;;;;;;;5073751;28;20385;-72
2022/04/12 04:50:20;;;;;;;3.30;3.20;;;;;;;;;;5073902;28;20407;-72
2022/04/12 04:52:46;;;;;;;3.20;3.00;;;;;;;;;;5073877;28;20400;-72
2022/04/12 04:55:12;;;;;;;3.40;3.30;;;;;;;;;;5073567;28;20392;-72
2022/04/12 04:57:42;;;;;;;3.83;3.60;;;;;;;;;;5073504;28;20425;-72
2022/04/12 05:00:09;;;;;;;3.77;3.57;;;;;;;;;;5073576;28;20811;-72
2022/04/12 05:02:35;;;;;;;4.10;3.23;;;;;;;;;;5073438;28;20535;-72
2022/04/12 05:05:04;;;;;;;3.40;3.20;;;;;;;;;;5073421;28;20384;-72
2022/04/12 05:07:31;;;;;;;3.50;3.40;;;;;;;;;;5072111;28;20796;-72
2022/04/12 05:09:57;;;;;;;3.23;3.00;;;;;;;;;;5073498;28;20468;-71
2022/04/12 05:12:23;;;;;;;4.53;3.47;;;;;;;;;;5073440;28;20487;-72
2022/04/12 05:14:49;;;;;;;4.03;3.80;;;;;;;;;;5072476;28;20447;-72
2022/04/12 05:17:23;;;;;;;4.10;3.77;;;;;;;;;;5072031;28;20973;-72
2022/04/12 05:19:49;;;;;;;4.13;3.77;;;;;;;;;;5073431;28;20410;-72
2022/04/12 05:22:15;;;;;;;3.77;3.40;;;;;;;;;;5073551;28;20484;-73
2022/04/12 05:24:41;;;;;;;5.37;3.77;;;;;;;;;;5073130;28;20420;-72
2022/04/12 05:27:07;;;;;;;3.77;3.67;;;;;;;;;;5073186;28;20468;-72
2022/04/12 05:29:33;;;;;;;4.67;4.27;;;;;;;;;;5073224;28;20389;-72
2022/04/12 05:31:59;;;;;;;5.53;5.13;;;;;;;;;;5071812;28;20414;-72
2022/04/12 05:34:25;;;;;;;6.40;5.80;;;;;;;;;;5072938;28;20497;-72
2022/04/12 05:36:51;;;;;;;5.70;5.40;;;;;;;;;;5072974;28;20402;-72
2022/04/12 05:39:17;;;;;;;5.30;5.00;;;;;;;;;;5072991;28;20864;-70
2022/04/12 05:41:43;;;;;;;6.27;5.63;;;;;;;;;;5072855;28;20445;-70
2022/04/12 05:44:09;;;;;;;4.57;4.37;;;;;;;;;;5072959;28;20403;-69
2022/04/12 05:46:35;;;;;;;6.37;5.87;;;;;;;;;;5073062;28;20475;-70
2022/04/12 05:49:01;;;;;;;55.90;39.63;;;;;;;;;;5072994;28;20402;-70
2022/04/12 05:51:27;;;;;;;8.80;7.90;;;;;;;;;;5072872;28;20809;-69
2022/04/12 05:53:53;;;;;;;6.77;6.03;;;;;;;;;;5072830;28;20440;-69
2022/04/12 05:56:19;;;;;;;5.30;4.90;;;;;;;;;;5072934;28;20421;-70
2022/04/12 05:58:45;;;;;;;7.27;4.90;;;;;;;;;;5072830;28;20409;-70
2022/04/12 06:01:11;;;;;;;5.53;5.20;;;;;;;;;;5072921;28;20402;-70
2022/04/12 06:03:37;;;;;;;9.37;5.43;;;;;;;;;;5072796;28;20905;-73
2022/04/12 06:06:03;;;;;;;5.70;4.93;;;;;;;;;;5071416;28;20444;-70
2022/04/12 06:08:29;;;;;;;4.63;4.43;;;;;;;;;;5071478;28;20910;-71
2022/04/12 06:10:55;;;;;;;5.23;4.70;;;;;;;;;;5072800;28;20406;-72
2022/04/12 06:13:21;;;;;;;5.00;4.50;;;;;;;;;;5072639;28;20843;-72
2022/04/12 06:15:47;;;;;;;7.10;5.67;;;;;;;;;;5072640;28;20414;-71
2022/04/12 06:18:13;;;;;;;4.77;4.50;;;;;;;;;;5072589;28;20472;-70
2022/04/12 06:20:39;;;;;;;4.80;4.57;;;;;;;;;;5072950;28;20418;-71
2022/04/12 06:23:05;;;;;;;5.40;5.10;;;;;;;;;;5072665;28;20402;-70
2022/04/12 06:25:31;;;;;;;5.47;4.63;;;;;;;;;;5072705;28;20905;-70
2022/04/12 06:27:57;;;;;;;4.40;4.27;;;;;;;;;;5072620;28;20472;-69
2022/04/12 06:30:27;;;;;;;4.90;4.60;;;;;;;;;;5071411;28;20540;-69
2022/04/12 06:32:54;;;;;;;11.73;5.10;;;;;;;;;;5072516;28;20439;-70
2022/04/12 06:35:20;;;;;;;5.10;4.90;;;;;;;;;;5072608;28;20414;-70
2022/04/12 06:37:48;;;;;;;5.27;5.07;;;;;;;;;;5057733;28;20414;-70
2022/04/12 06:40:15;;;;;;;9.23;8.40;;;;;;;;;;5076121;28;20409;-70
2022/04/12 06:42:42;;;;;;;6.40;5.80;;;;;;;;;;5075786;28;21031;-70
2022/04/12 06:45:08;;;;;;;6.43;5.80;;;;;;;;;;5075943;28;20745;-70
2022/04/12 06:47:35;;;;;;;5.60;5.30;;;;;;;;;;5075990;28;20452;-71
2022/04/12 06:50:01;;;;;;;5.43;4.83;;;;;;;;;;5075874;28;20410;-69
2022/04/12 06:52:27;;;;;;;8.50;4.40;;;;;;;;;;5075930;28;20398;-70
2022/04/12 06:54:53;;;;;;;4.70;4.50;;;;;;;;;;5075834;28;20464;-70
2022/04/12 06:57:19;;;;;;;4.07;3.77;;;;;;;;;;5075791;28;20790;-69
2022/04/12 06:59:45;;;;;;;6.30;4.33;;;;;;;;;;5075692;28;20616;-70
2022/04/12 07:02:12;;;;;;;4.40;4.10;;;;;;;;;;5076123;28;20394;-70
2022/04/12 07:04:38;;;;;;;12.97;4.30;;;;;;;;;;5075927;28;20390;-70
2022/04/12 07:07:04;;;;;;;5.10;4.83;;;;;;;;;;5075562;28;20398;-70
2022/04/12 07:09:30;;;;;;;4.73;4.33;;;;;;;;;;5075506;28;20394;-70
2022/04/12 07:11:57;;;;;;;4.60;4.20;;;;;;;;;;5075444;28;20398;-70
2022/04/12 07:14:23;;;;;;;7.77;5.60;;;;;;;;;;5075390;28;20462;-69
2022/04/12 07:16:49;;;;;;;9.10;5.20;;;;;;;;;;5075388;28;20428;-70
2022/04/12 07:19:15;;;;;;;5.27;4.80;;;;;;;;;;5075462;28;20889;-70
2022/04/12 07:21:42;;;;;;;10.20;5.10;;;;;;;;;;5075409;28;20438;-70
2022/04/12 07:24:08;;;;;;;6.17;4.83;;;;;;;;;;5075590;28;20835;-69
2022/04/12 07:26:34;;;;;;;8.00;5.70;;;;;;;;;;5075543;28;20406;-69
2022/04/12 07:29:00;;;;;;;8.60;5.63;;;;;;;;;;5075329;28;20414;-69
2022/04/12 07:31:27;;;;;;;8.70;4.60;;;;;;;;;;5075143;28;20897;-68
2022/04/12 07:33:53;;;;;;;5.07;4.73;;;;;;;;;;5072430;28;20607;-69
2022/04/12 07:36:20;;;;;;;4.77;4.47;;;;;;;;;;5072286;28;20433;-69
2022/04/12 07:38:48;;;;;;;5.97;5.23;;;;;;;;;;5072544;28;20832;-70
2022/04/12 07:41:14;;;;;;;5.40;5.10;;;;;;;;;;5072764;28;20417;-71
2022/04/12 07:43:41;;;;;;;5.10;4.60;;;;;;;;;;5072141;28;20469;-70
2022/04/12 07:46:07;;;;;;;4.63;4.43;;;;;;;;;;5070998;28;20422;-68
2022/04/12 07:48:33;;;;;;;15.57;5.50;;;;;;;;;;5069732;28;20437;-69
2022/04/12 07:50:59;;;;;;;5.67;4.20;;;;;;;;;;5072340;28;20984;-70
2022/04/12 07:53:25;;;;;;;11.83;4.57;;;;;;;;;;5072095;28;20804;-70
2022/04/12 07:55:51;;;;;;;4.93;4.63;;;;;;;;;;5070661;28;20529;-70
2022/04/12 07:58:17;;;;;;;7.67;4.80;;;;;;;;;;5071768;28;20483;-69
2022/04/12 08:00:43;;;;;;;4.80;4.40;;;;;;;;;;5070472;28;20414;-69
2022/04/12 08:03:09;;;;;;;5.30;4.10;;;;;;;;;;5070612;28;20437;-69
2022/04/12 08:05:35;;;;;;;4.07;3.80;;;;;;;;;;5074130;28;20422;-71
2022/04/12 08:08:02;;;;;;;4.00;3.80;;;;;;;;;;5074543;28;20410;-73
2022/04/12 08:10:28;;;;;;;3.33;3.13;;;;;;;;;;5074802;28;20536;-71
2022/04/12 08:12:54;;;;;;;3.90;3.70;;;;;;;;;;5072526;28;20913;-70
2022/04/12 08:15:20;;;;;;;3.33;3.03;;;;;;;;;;5074573;28;20410;-70
2022/04/12 08:17:46;;;;;;;3.50;3.30;;;;;;;;;;5074283;28;20779;-70
2022/04/12 08:20:15;;;;;;;6.63;3.13;;;;;;;;;;5074305;28;20406;-73
2022/04/12 08:22:42;;;;;;;8.03;3.90;;;;;;;;;;5074436;28;20402;-73
2022/04/12 08:25:09;;;;;;;4.20;3.30;;;;;;;;;;5074102;28;20415;-73
2022/04/12 08:27:35;;;;;;;6.90;6.30;;;;;;;;;;5074122;28;20414;-73
2022/04/12 08:30:07;;;;;;;3.50;3.30;;;;;;;;;;5074374;28;20790;-72
2022/04/12 08:32:33;;;;;;;5.23;3.30;;;;;;;;;;5074336;28;20414;-74
2022/04/12 08:34:59;;;;;;;3.80;3.40;;;;;;;;;;5072580;28;20511;-73
2022/04/12 08:37:25;;;;;;;3.20;3.10;;;;;;;;;;5074019;28;20401;-72
2022/04/12 08:39:51;;;;;;;3.63;3.33;;;;;;;;;;5073938;28;20416;-71
2022/04/12 08:42:17;;;;;;;2.97;2.87;;;;;;;;;;5072448;28;20468;-72
2022/04/12 08:44:46;;;;;;;3.60;3.27;;;;;;;;;;5073766;28;20505;-72
2022/04/12 08:47:14;;;;;;;3.43;3.23;;;;;;;;;;5073845;28;20409;-71
2022/04/12 08:49:40;;;;;;;5.13;2.80;;;;;;;;;;5073742;28;20441;-72
2022/04/12 08:52:11;;;;;;;5.20;3.70;;;;;;;;;;5073637;28;20413;-72
2022/04/12 08:54:40;;;;;;;2.83;2.60;;;;;;;;;;5073690;28;20529;-71
2022/04/12 08:57:06;;;;;;;3.40;3.13;;;;;;;;;;5073688;28;20451;-71
2022/04/12 08:59:33;;;;;;;3.30;3.20;;;;;;;;;;5073301;28;20500;-72
2022/04/12 09:01:59;;;;;;;3.57;3.00;;;;;;;;;;5073562;28;20414;-72
2022/04/12 09:04:28;;;;;;;3.07;2.87;;;;;;;;;;5073559;28;20413;-72
2022/04/12 09:06:57;;;;;;;3.83;3.60;;;;;;;;;;5073562;28;20421;-71
2022/04/12 09:09:24;;;;;;;5.10;3.50;;;;;;;;;;5073303;28;20457;-71
2022/04/12 09:12:00;;;;;;;5.50;3.80;;;;;;;;;;5072258;28;20521;-71
2022/04/12 09:14:35;;;;;;;3.60;3.30;;;;;;;;;;5072047;28;21004;-72
2022/04/12 09:17:02;;;;;;;3.97;3.77;;;;;;;;;;5073354;28;20912;-71
2022/04/12 09:19:42;;;;;;;3.43;3.13;;;;;;;;;;5073344;28;20874;-72
2022/04/12 09:22:15;;;;;;;3.10;3.00;;;;;;;;;;5073404;28;20914;-72
2022/04/12 09:24:45;;;;;;;3.40;3.20;;;;;;;;;;5073555;28;20409;-72
2022/04/12 09:27:12;;;;;;;3.43;3.10;;;;;;;;;;5073295;28;20417;-72
2022/04/12 09:29:43;;;;;;;6.50;2.77;;;;;;;;;;5071935;28;20412;-72
2022/04/12 09:32:13;;;;;;;4.50;2.50;;;;;;;;;;5073333;28;20466;-72
2022/04/12 09:34:39;;;;;;;3.30;3.10;;;;;;;;;;5073128;28;20481;-72
2022/04/12 09:37:16;;;;;;;3.00;2.80;;;;;;;;;;5072058;28;20408;-72
2022/04/12 09:39:42;;;;;;;3.13;2.67;;;;;;;;;;5073354;28;20507;-72
2022/04/12 09:42:08;;;;;;;3.00;2.80;;;;;;;;;;5072860;28;20906;-72
2022/04/12 09:44:34;;;;;;;4.00;2.50;;;;;;;;;;5073468;28;20408;-72
2022/04/12 09:47:01;;;;;;;3.60;3.30;;;;;;;;;;5073084;28;20519;-72
2022/04/12 09:49:42;;;;;;;2.90;2.80;;;;;;;;;;5073449;28;20801;-72
2022/04/12 09:52:11;;;;;;;2.67;2.50;;;;;;;;;;5073319;28;20491;-72
2022/04/12 09:54:37;;;;;;;3.47;3.27;;;;;;;;;;5073083;28;20470;-73
2022/04/12 09:57:04;;;;;;;4.10;3.07;;;;;;;;;;5073032;28;20427;-72
2022/04/12 09:59:32;;;;;;;2.57;2.50;;;;;;;;;;5073128;28;20753;-72
2022/04/12 10:01:59;;;;;;;2.40;2.20;;;;;;;;;;5073021;28;20953;-72
2022/04/12 10:04:25;;;;;;;4.37;3.00;;;;;;;;;;5072922;28;20390;-71
2022/04/12 10:06:52;;;;;;;3.23;2.90;;;;;;;;;;5072914;28;20397;-72
2022/04/12 10:09:20;;;;;;;2.90;2.63;;;;;;;;;;5072987;28;20494;-71
2022/04/12 10:11:48;;;;;;;2.90;2.80;;;;;;;;;;5074517;28;20406;-70
2022/04/12 10:14:15;;;;;;;4.13;3.20;;;;;;;;;;5076611;28;20556;-71
2022/04/12 10:16:41;;;;;;;3.43;3.20;;;;;;;;;;5075185;28;20457;-70
2022/04/12 10:19:07;;;;;;;4.20;2.70;;;;;;;;;;5075298;28;20490;-70
2022/04/12 10:21:33;;;;;;;4.03;3.50;;;;;;;;;;5076542;28;20403;-71
2022/04/12 10:24:00;;;;;;;3.10;3.00;;;;;;;;;;5076572;28;20515;-71
2022/04/12 10:26:27;;;;;;;3.90;3.07;;;;;;;;;;5075219;28;20412;-71
2022/04/12 10:29:00;;;;;;;3.60;3.40;;;;;;;;;;5076496;28;20425;-70
2022/04/12 10:31:32;;;;;;;3.87;3.50;;;;;;;;;;5076431;28;20406;-72
2022/04/12 10:34:01;;;;;;;3.17;2.97;;;;;;;;;;5076392;28;20963;-71
2022/04/12 10:36:46;;;;;;;4.03;3.00;;;;;;;;;;5076410;28;20412;-71
2022/04/12 10:39:12;;;;;;;2.70;2.60;;;;;;;;;;5076739;28;20414;-71
2022/04/12 10:41:42;;;;;;;3.37;3.10;;;;;;;;;;5076472;28;20749;-71
2022/04/12 10:44:18;;;;;;;2.80;2.47;;;;;;;;;;5076046;28;20478;-72
2022/04/12 10:46:50;;;;;;;2.40;2.30;;;;;;;;;;5075100;28;20463;-72
2022/04/12 10:49:22;;;;;;;2.40;2.20;;;;;;;;;;5076478;28;20418;-71
2022/04/12 10:52:00;;;;;;;2.30;2.30;;;;;;;;;;5076330;28;20408;-71
2022/04/12 10:54:30;;;;;;;2.50;2.33;;;;;;;;;;5076181;28;20833;-71
2022/04/12 10:57:15;;;;;;;6.60;2.50;;;;;;;;;;5076008;28;20952;-72
2022/04/12 10:59:46;;;;;;;2.73;2.63;;;;;;;;;;5076033;28;20457;-73
2022/04/12 11:02:14;;;;;;;2.90;2.80;;;;;;;;;;5075818;28;20437;-72
2022/04/12 11:04:40;;;;;;;2.73;2.63;;;;;;;;;;5076106;28;20420;-72
2022/04/12 11:07:09;;;;;;;3.17;2.70;;;;;;;;;;5075775;28;20437;-72
2022/04/12 11:09:35;;;;;;;2.77;2.60;;;;;;;;;;5075789;28;20409;-72
2022/04/12 11:12:02;;;;;;;3.67;2.70;;;;;;;;;;5075729;28;20745;-72
2022/04/12 11:14:28;;;;;;;3.03;2.70;;;;;;;;;;5075384;28;20960;-72
2022/04/12 11:17:01;;;;;;;2.83;2.63;;;;;;;;;;5075613;28;20413;-71
2022/04/12 11:19:27;;;;;;;2.60;2.40;;;;;;;;;;5075529;28;20416;-71
2022/04/12 11:21:57;;;;;;;2.10;2.10;;;;;;;;;;5075209;28;20417;-72
2022/04/12 11:24:23;;;;;;;3.57;2.87;;;;;;;;;;5075360;28;20410;-71
2022/04/12 11:27:10;;;;;;;3.90;2.40;;;;;;;;;;5075447;28;20403;-71
2022/04/12 11:29:37;;;;;;;2.90;2.70;;;;;;;;;;5074070;28;20436;-72
2022/04/12 11:32:04;;;;;;;3.13;2.53;;;;;;;;;;5075288;28;20409;-71
2022/04/12 11:34:31;;;;;;;2.70;2.60;;;;;;;;;;5075218;28;20548;-72
2022/04/12 11:36:57;;;;;;;4.77;3.00;;;;;;;;;;5075361;28;20401;-72
2022/04/12 11:39:27;;;;;;;3.80;2.57;;;;;;;;;;5075108;28;20411;-73
2022/04/12 11:42:01;;;;;;;2.97;2.27;;;;;;;;;;5073641;28;20414;-72
2022/04/12 11:44:27;;;;;;;2.77;2.23;;;;;;;;;;5074977;28;20434;-72
2022/04/12 11:46:57;;;;;;;4.10;2.20;;;;;;;;;;5075004;28;20413;-71
2022/04/12 11:49:28;;;;;;;3.30;3.20;;;;;;;;;;5074940;28;20410;-73
2022/04/12 11:51:54;;;;;;;2.30;2.30;;;;;;;;;;5074974;28;20423;-73
2022/04/12 11:54:20;;;;;;;2.77;2.40;;;;;;;;;;5074834;28;20465;-72
2022/04/12 11:56:47;;;;;;;3.10;2.90;;;;;;;;;;5074885;28;20489;-73
2022/04/12 11:59:13;;;;;;;3.13;2.27;;;;;;;;;;5073488;28;20459;-73
2022/04/12 12:01:39;;;;;;;3.63;2.20;;;;;;;;;;5074777;28;20518;-73
2022/04/12 12:04:06;;;;;;;3.30;2.47;;;;;;;;;;5073321;28;20514;-72
2022/04/12 12:06:32;;;;;;;2.13;2.03;;;;;;;;;;5074937;28;20405;-72
2022/04/12 12:08:58;;;;;;;7.90;1.70;;;;;;;;;;5074597;28;20416;-73
2022/04/12 12:11:24;;;;;;;3.13;2.00;;;;;;;;;;5074752;28;20474;-72
2022/04/12 12:13:59;;;;;;;4.17;1.73;;;;;;;;;;5074532;28;20523;-73
2022/04/12 12:16:25;;;;;;;2.30;2.10;;;;;;;;;;5074131;28;20404;-74
2022/04/12 12:18:51;;;;;;;2.30;2.10;;;;;;;;;;5074438;28;20417;-74
2022/04/12 12:21:18;;;;;;;2.93;2.23;;;;;;;;;;5074222;28;20775;-73
2022/04/12 12:23:44;;;;;;;2.90;2.77;;;;;;;;;;5073057;28;20483;-74
2022/04/12 12:26:10;;;;;;;2.20;2.10;;;;;;;;;;5073889;28;20416;-73
2022/04/12 12:28:40;;;;;;;2.67;2.57;;;;;;;;;;5073874;28;20521;-72
2022/04/12 12:31:07;;;;;;;7.33;2.10;;;;;;;;;;5073898;28;20940;-71
2022/04/12 12:33:44;;;;;;;3.03;1.70;;;;;;;;;;5073872;28;20466;-71
2022/04/12 12:36:25;;;;;;;1.90;1.90;;;;;;;;;;5074041;28;20479;-77
2022/04/12 12:38:53;;;;;;;2.10;2.00;;;;;;;;;;5073961;28;20382;-80
2022/04/12 12:41:26;;;;;;;2.10;1.87;;;;;;;;;;5073945;28;20495;-73
2022/04/12 12:43:53;;;;;;;3.37;1.90;;;;;;;;;;5073623;28;20507;-77
2022/04/12 12:46:19;;;;;;;1.90;1.83;;;;;;;;;;5074110;28;20437;-77
2022/04/12 12:48:45;;;;;;;5.27;1.90;;;;;;;;;;5073734;28;20940;-72
2022/04/12 12:51:12;;;;;;;2.30;2.10;;;;;;;;;;5073654;28;20423;-75
2022/04/12 12:53:40;;;;;;;2.20;2.00;;;;;;;;;;5073551;28;20545;-71
2022/04/12 12:56:15;;;;;;;2.13;2.03;;;;;;;;;;5073642;28;20391;-70
2022/04/12 12:58:41;;;;;;;2.30;1.80;;;;;;;;;;5073617;28;20426;-70
2022/04/12 13:01:07;;;;;;;2.00;1.93;;;;;;;;;;5073849;28;20396;-70
2022/04/12 13:03:33;;;;;;;2.07;1.97;;;;;;;;;;5073495;28;20477;-71
2022/04/12 13:06:00;;;;;;;2.10;1.90;;;;;;;;;;5073492;28;20403;-71
2022/04/12 13:08:32;;;;;;;1.80;1.70;;;;;;;;;;5073478;28;20404;-70
2022/04/12 13:10:58;;;;;;;3.97;2.30;;;;;;;;;;5073803;28;20398;-72
2022/04/12 13:13:24;;;;;;;3.33;2.13;;;;;;;;;;5073418;28;20482;-70
2022/04/12 13:15:50;;;;;;;1.70;1.70;;;;;;;;;;5073555;28;20501;-71
2022/04/12 13:18:17;;;;;;;1.83;1.83;;;;;;;;;;5073440;28;20837;-71
2022/04/12 13:20:44;;;;;;;3.97;2.03;;;;;;;;;;5073352;28;20408;-72
2022/04/12 13:23:09;;;;;;;2.10;1.60;;;;;;;;;;5073417;28;20505;-72
2022/04/12 13:25:36;;;;;;;6.63;1.90;;;;;;;;;;5073453;28;20810;-71
2022/04/12 13:28:01;;;;;;;4.43;1.93;;;;;;;;;;5073497;28;20422;-73
2022/04/12 13:30:28;;;;;;;2.27;2.07;;;;;;;;;;5073337;28;20465;-72
2022/04/12 13:32:54;;;;;;;4.40;2.30;;;;;;;;;;5073146;28;20448;-73
2022/04/12 13:35:21;;;;;;;1.53;1.43;;;;;;;;;;5073267;28;20463;-71
2022/04/12 13:37:48;;;;;;;3.90;1.60;;;;;;;;;;5073254;28;20412;-71
2022/04/12 13:40:14;;;;;;;2.30;1.80;;;;;;;;;;5073293;28;20415;-71
2022/04/12 13:42:45;;;;;;;2.20;1.93;;;;;;;;;;5073064;28;20466;-71
2022/04/12 13:45:11;;;;;;;1.90;1.83;;;;;;;;;;5073913;28;20908;-71
2022/04/12 13:47:37;;;;;;;1.53;1.43;;;;;;;;;;5077220;28;20413;-71
2022/04/12 13:50:04;;;;;;;2.73;1.80;;;;;;;;;;5077289;28;20509;-71
2022/04/12 13:52:30;;;;;;;10.23;2.50;;;;;;;;;;5077234;28;20490;-71
2022/04/12 13:54:56;;;;;;;2.17;2.07;;;;;;;;;;5077061;28;21038;-71
2022/04/12 13:57:22;;;;;;;4.67;2.10;;;;;;;;;;5076058;28;20407;-71
2022/04/12 13:59:48;;;;;;;3.73;2.20;;;;;;;;;;5077350;28;20442;-74
2022/04/12 14:02:14;;;;;;;3.33;2.17;;;;;;;;;;5077022;28;20402;-75
2022/04/12 14:04:40;;;;;;;3.43;1.67;;;;;;;;;;5076935;28;20410;-71
2022/04/12 14:07:06;;;;;;;2.83;2.13;;;;;;;;;;5075641;28;20427;-71
2022/04/12 14:09:32;;;;;;;5.20;1.90;;;;;;;;;;5076844;28;20417;-71
2022/04/12 14:11:58;;;;;;;8.40;2.37;;;;;;;;;;5076850;28;20406;-71
2022/04/12 14:14:24;;;;;;;3.20;2.87;;;;;;;;;;5076593;28;20552;-72
2022/04/12 14:16:50;;;;;;;2.83;2.37;;;;;;;;;;5076750;28;20395;-71
2022/04/12 14:19:16;;;;;;;4.90;1.90;;;;;;;;;;5076741;28;20462;-70
2022/04/12 14:21:43;;;;;;;2.40;2.00;;;;;;;;;;5076575;28;20402;-70
2022/04/12 14:24:09;;;;;;;4.50;2.27;;;;;;;;;;5076569;28;20413;-70
2022/04/12 14:26:35;;;;;;;3.10;2.40;;;;;;;;;;5076516;28;20398;-73
2022/04/12 14:29:04;;;;;;;2.17;1.90;;;;;;;;;;5076559;28;20418;-71
2022/04/12 14:31:30;;;;;;;2.20;2.10;;;;;;;;;;5076542;28;20512;-71
2022/04/12 14:33:56;;;;;;;2.10;1.80;;;;;;;;;;5076310;28;20447;-73
2022/04/12 14:36:22;;;;;;;4.50;1.93;;;;;;;;;;5076302;28;20414;-73
2022/04/12 14:38:48;;;;;;;4.53;2.03;;;;;;;;;;5076286;28;20401;-71
2022/04/12 14:41:14;;;;;;;1.80;1.70;;;;;;;;;;5076324;28;20815;-72
2022/04/12 14:43:41;;;;;;;4.13;2.20;;;;;;;;;;5075908;28;20472;-71
2022/04/12 14:46:07;;;;;;;4.60;1.93;;;;;;;;;;5076180;28;20447;-72